Los Alamitos, California
Current Conditions -  °F | °C
As of 11:58 AM on Monday 22 Dec 2014 (Local Time) from KSLI Reporting Station
Clear Clear  
Wind Chill: 70°   Ceiling: Unl
Heat Index: 70°   Visibility: 7mi
Dew Point: 54°   Wind: 1mph
Humidity: 55%   Direction: NA
Pressure: 30"   Gusts: NA
Location:  33.8°N, 118.07°W
Report Text: KSLI 221958Z VRB01KT 7SM CLR 21/12 A3000 RMK AO2A SLP162 T02130120
Loading
Personal Weather Stations






























Interactive Weather Map New forecast layout! Learn more

10-Day Weather Forecast

Advertisements
Track Severe Weather on mobile